Time;durP1;ratioP1;P1;durP2;ratioP2;P2;SDS_P1;SDS_P2;PMS_P1;PMS_P2;Temp;Humidity;BMP_temperature;BMP_pressure;BME280_temperature;BME280_humidity;BME280_pressure;Samples;Min_cycle;Max_cycle;Signal;HPM_P1;HPM_P2
2020/12/17 00:00:21;;;;;;;101.68;29.77;;;;;;;1.03;100.00;96465.06;1036354;28;20041;-77
2020/12/17 00:00:51;;;;;;;96.30;30.45;;;;;;;0.92;100.00;96447.50;1028088;28;20018;-77
2020/12/17 00:01:22;;;;;;;104.68;30.20;;;;;;;1.05;100.00;96457.13;1028087;28;20066;-76
2020/12/17 00:01:55;;;;;;;169.85;37.65;;;;;;;0.99;100.00;96465.38;1036304;28;20080;-78
2020/12/17 00:02:26;;;;;;;111.30;29.02;;;;;;;1.06;100.00;96461.38;1036288;28;20022;-77
2020/12/17 00:02:57;;;;;;;91.63;28.27;;;;;;;0.86;100.00;96440.03;1024158;28;20058;-76
2020/12/17 00:03:27;;;;;;;106.65;29.02;;;;;;;0.99;100.00;96455.72;1024273;29;20035;-77
2020/12/17 00:03:58;;;;;;;124.25;31.42;;;;;;;0.88;100.00;96438.16;1032318;28;20471;-77
2020/12/17 00:04:29;;;;;;;129.90;31.23;;;;;;;0.79;100.00;96430.13;1028263;28;20136;-77
2020/12/17 00:04:59;;;;;;;114.80;30.73;;;;;;;0.88;100.00;96442.56;1028143;28;20081;-76
2020/12/17 00:05:30;;;;;;;211.18;40.83;;;;;;;0.96;100.00;96457.72;1040346;28;20071;-77
2020/12/17 00:06:01;;;;;;;159.35;35.75;;;;;;;0.99;100.00;96454.91;1028166;28;20034;-77
2020/12/17 00:06:32;;;;;;;236.40;41.88;;;;;;;0.85;100.00;96432.31;1036270;28;20494;-76
2020/12/17 00:07:02;;;;;;;143.43;33.50;;;;;;;0.89;100.00;96439.84;1028044;28;20015;-76
2020/12/17 00:07:33;;;;;;;231.52;43.05;;;;;;;1.00;100.00;96457.41;1032276;28;20015;-77
2020/12/17 00:08:04;;;;;;;205.43;39.13;;;;;;;0.90;100.00;96451.97;1028193;28;20022;-77
2020/12/17 00:08:35;;;;;;;184.10;38.03;;;;;;;0.96;100.00;96457.72;1036339;28;20029;-77
2020/12/17 00:09:05;;;;;;;249.35;41.95;;;;;;;0.99;100.00;96460.97;1036125;28;20470;-76
2020/12/17 00:09:36;;;;;;;152.07;32.47;;;;;;;1.04;100.00;96458.88;1032167;28;20030;-76
2020/12/17 00:10:08;;;;;;;92.45;28.13;;;;;;;0.86;100.00;96426.16;1028189;28;20064;-77
2020/12/17 00:10:39;;;;;;;173.10;37.30;;;;;;;1.06;100.00;96466.63;1028362;28;20488;-77
2020/12/17 00:11:10;;;;;;;133.93;32.38;;;;;;;0.92;100.00;96452.72;1031961;28;20026;-76
2020/12/17 00:11:41;;;;;;;126.97;30.67;;;;;;;0.93;100.00;96459.59;1031788;28;20113;-76
2020/12/17 00:12:11;;;;;;;86.05;27.17;;;;;;;1.01;100.00;96463.47;1032259;28;20022;-77
2020/12/17 00:12:43;;;;;;;164.75;35.75;;;;;;;0.89;100.00;96455.53;1028247;28;20491;-78
2020/12/17 00:13:14;;;;;;;179.27;37.97;;;;;;;0.90;100.00;96466.81;1032041;28;20110;-76
2020/12/17 00:13:45;;;;;;;199.30;38.58;;;;;;;0.91;100.00;96460.66;1032211;28;20045;-78
2020/12/17 00:14:17;;;;;;;124.35;31.25;;;;;;;0.88;100.00;96438.16;1028111;28;20162;-77
2020/12/17 00:14:48;;;;;;;167.77;36.30;;;;;;;0.94;100.00;96463.03;1024044;28;20050;-76
2020/12/17 00:15:19;;;;;;;143.93;32.10;;;;;;;1.02;100.00;96466.00;1028041;28;20027;-77
2020/12/17 00:15:49;;;;;;;70.57;26.35;;;;;;;0.97;100.00;96441.09;1036335;28;20156;-76
2020/12/17 00:16:20;;;;;;;165.65;35.10;;;;;;;0.94;100.00;96445.59;1032318;28;20033;-77
2020/12/17 00:16:51;;;;;;;185.68;35.00;;;;;;;1.09;100.00;96461.19;1028237;28;20030;-76
2020/12/17 00:17:22;;;;;;;248.68;43.53;;;;;;;0.98;100.00;96453.25;1024244;29;20027;-77
2020/12/17 00:17:52;;;;;;;119.25;30.63;;;;;;;0.93;100.00;96462.22;1032139;28;20109;-76
2020/12/17 00:18:23;;;;;;;136.02;32.25;;;;;;;0.90;100.00;96459.81;1028258;28;20023;-77
2020/12/17 00:18:54;;;;;;;131.40;29.90;;;;;;;0.81;100.00;96436.09;1032160;28;20109;-77
2020/12/17 00:19:25;;;;;;;161.70;33.42;;;;;;;0.75;100.00;96438.16;1024316;29;20102;-77
2020/12/17 00:19:56;;;;;;;153.05;34.58;;;;;;;0.86;100.00;96457.53;1024097;29;20031;-77
2020/12/17 00:20:27;;;;;;;209.35;38.88;;;;;;;0.85;100.00;96461.88;1028305;28;20041;-77
2020/12/17 00:20:57;;;;;;;171.32;35.40;;;;;;;0.73;100.00;96436.56;1027934;28;20030;-76
2020/12/17 00:21:28;;;;;;;285.20;42.53;;;;;;;0.79;100.00;96459.72;1024124;29;20019;-76
2020/12/17 00:21:59;;;;;;;117.03;30.80;;;;;;;0.84;100.00;96457.63;1032204;28;20093;-77
2020/12/17 00:22:34;;;;;;;147.80;31.05;;;;;;;0.82;100.00;96459.50;1028100;28;20082;-77
2020/12/17 00:23:04;;;;;;;123.13;28.65;;;;;;;0.64;100.00;96430.19;1036033;28;20079;-77
2020/12/17 00:23:35;;;;;;;139.23;30.73;;;;;;;0.47;100.00;96418.28;1028133;28;20188;-77
2020/12/17 00:24:07;;;;;;;144.60;31.35;;;;;;;0.61;100.00;96445.25;1036386;28;20025;-77
2020/12/17 00:24:37;;;;;;;106.50;29.27;;;;;;;0.71;100.00;96460.19;1028004;28;20114;-76
2020/12/17 00:25:09;;;;;;;165.10;35.38;;;;;;;0.73;100.00;96465.34;1031892;28;20117;-76
2020/12/17 00:25:40;;;;;;;124.07;31.88;;;;;;;0.75;100.00;96458.25;1028152;28;20077;-76
2020/12/17 00:26:12;;;;;;;239.20;43.97;;;;;;;0.75;100.00;96459.06;1032102;28;20077;-77
2020/12/17 00:26:42;;;;;;;243.05;41.28;;;;;;;0.69;100.00;96456.03;1024147;28;20070;-76
2020/12/17 00:27:13;;;;;;;226.77;40.25;;;;;;;0.82;100.00;96467.34;1019969;28;20035;-76
2020/12/17 00:27:45;;;;;;;236.15;41.13;;;;;;;0.85;100.00;96459.28;1032247;28;20077;-77
2020/12/17 00:28:16;;;;;;;164.02;35.58;;;;;;;0.72;100.00;96442.75;1023991;28;20523;-77
2020/12/17 00:28:46;;;;;;;74.75;26.83;;;;;;;0.79;100.00;96438.78;1024021;28;20027;-76
2020/12/17 00:29:17;;;;;;;99.38;28.60;;;;;;;0.96;100.00;96461.19;1020251;29;20542;-77
2020/12/17 00:29:48;;;;;;;232.32;41.63;;;;;;;0.83;100.00;96440.25;1032246;28;20086;-77
2020/12/17 00:30:18;;;;;;;249.38;44.28;;;;;;;0.95;100.00;96459.50;1032098;28;20085;-76
2020/12/17 00:30:49;;;;;;;96.50;28.33;;;;;;;0.95;100.00;96462.13;1031982;28;20222;-75
2020/12/17 00:31:20;;;;;;;95.30;30.30;;;;;;;0.86;100.00;96449.69;1024035;28;20019;-76
2020/12/17 00:31:52;;;;;;;93.53;27.73;;;;;;;0.79;100.00;96438.78;1024024;29;20015;-77
2020/12/17 00:32:22;;;;;;;89.57;27.75;;;;;;;0.87;100.00;96438.25;1036234;28;20013;-77
2020/12/17 00:32:53;;;;;;;132.70;32.00;;;;;;;0.86;100.00;96458.34;1016068;29;20036;-76
2020/12/17 00:33:24;;;;;;;159.18;34.50;;;;;;;0.88;100.00;96466.09;1028016;28;20586;-77
2020/12/17 00:33:54;;;;;;;164.38;35.92;;;;;;;0.98;100.00;96458.47;1032137;28;20026;-77
2020/12/17 00:34:25;;;;;;;196.30;38.92;;;;;;;0.98;100.00;96461.91;1040344;28;20120;-77
2020/12/17 00:34:56;;;;;;;137.85;34.95;;;;;;;0.79;100.00;96436.19;1031895;28;20046;-77
2020/12/17 00:35:27;;;;;;;141.02;34.40;;;;;;;0.90;100.00;96451.97;1036240;28;20109;-77
2020/12/17 00:35:57;;;;;;;144.23;33.88;;;;;;;0.92;100.00;96462.31;1032061;28;20023;-76
2020/12/17 00:36:28;;;;;;;174.88;35.47;;;;;;;0.82;100.00;96445.56;1032226;28;20026;-77
2020/12/17 00:36:59;;;;;;;116.68;30.85;;;;;;;0.67;100.00;96418.72;1027998;28;20049;-76
2020/12/17 00:37:31;;;;;;;113.93;30.85;;;;;;;0.87;100.00;96454.81;1024077;28;20035;-77
2020/12/17 00:38:02;;;;;;;113.07;28.92;;;;;;;0.89;100.00;96459.94;1020092;29;20428;-77
2020/12/17 00:38:34;;;;;;;134.77;31.65;;;;;;;0.74;100.00;96446.09;1028059;28;20022;-76
2020/12/17 00:39:05;;;;;;;142.40;32.15;;;;;;;0.84;100.00;96457.63;1019983;29;20031;-76
2020/12/17 00:39:35;;;;;;;190.38;38.10;;;;;;;0.83;100.00;96461.16;1032221;28;20457;-76
2020/12/17 00:40:16;;;;;;;155.32;32.72;;;;;;;0.68;100.00;96430.81;1036172;28;20030;-76
2020/12/17 00:40:47;;;;;;;107.72;27.88;;;;;;;0.93;100.00;96459.59;1035994;28;20025;-76
2020/12/17 00:41:18;;;;;;;241.00;43.05;;;;;;;0.92;100.00;96457.94;1031925;28;20101;-77
2020/12/17 00:41:49;;;;;;;261.30;43.50;;;;;;;0.85;100.00;96456.66;1032061;28;20037;-76
2020/12/17 00:42:19;;;;;;;131.40;30.80;;;;;;;0.86;100.00;96462.75;1031846;28;20137;-76
2020/12/17 00:42:50;;;;;;;163.00;33.22;;;;;;;0.84;100.00;96464.63;1031482;28;20041;-76
2020/12/17 00:43:21;;;;;;;161.05;35.30;;;;;;;0.78;100.00;96463.25;1031957;28;20494;-76
2020/12/17 00:43:52;;;;;;;137.18;33.38;;;;;;;0.80;100.00;96460.53;1032064;28;20109;-76
2020/12/17 00:44:23;;;;;;;127.32;31.67;;;;;;;0.85;100.00;96459.28;1032068;28;20026;-77
2020/12/17 00:44:54;;;;;;;128.07;29.40;;;;;;;0.94;100.00;96457.81;1019890;29;20031;-76
2020/12/17 00:45:25;;;;;;;176.93;37.55;;;;;;;0.80;100.00;96448.31;1024092;29;20032;-76
2020/12/17 00:45:56;;;;;;;117.82;30.02;;;;;;;0.77;100.00;96445.03;1020047;28;20031;-76
2020/12/17 00:46:26;;;;;;;182.38;36.42;;;;;;;0.78;100.00;96452.78;1028093;28;20446;-76
2020/12/17 00:46:58;;;;;;;104.18;29.00;;;;;;;0.93;100.00;96464.84;1031857;28;20478;-76
2020/12/17 00:47:29;;;;;;;199.55;36.72;;;;;;;0.77;100.00;96443.28;1016118;29;20032;-76
2020/12/17 00:48:00;;;;;;;191.25;37.72;;;;;;;0.86;100.00;96457.53;1031989;28;20050;-77
2020/12/17 00:48:30;;;;;;;122.38;29.95;;;;;;;0.90;100.00;96459.81;1028034;28;20019;-76
2020/12/17 00:49:01;;;;;;;248.13;42.55;;;;;;;0.82;100.00;96453.41;1035913;28;20030;-76
2020/12/17 00:49:32;;;;;;;122.65;31.52;;;;;;;0.73;100.00;96452.25;1024043;28;20081;-78
2020/12/17 00:50:07;;;;;;;205.98;39.72;;;;;;;0.78;100.00;96465.84;1024017;29;20126;-77
2020/12/17 00:50:38;;;;;;;240.65;40.85;;;;;;;0.76;100.00;96459.91;1028104;28;20486;-77
2020/12/17 00:51:09;;;;;;;257.15;44.97;;;;;;;0.77;100.00;96461.59;1027700;28;20038;-76
2020/12/17 00:51:39;;;;;;;137.30;32.25;;;;;;;0.77;100.00;96469.44;1032067;28;20053;-77
2020/12/17 00:52:10;;;;;;;311.58;46.08;;;;;;;0.71;100.00;96472.44;1027949;28;20026;-76
2020/12/17 00:52:41;;;;;;;247.70;41.85;;;;;;;0.65;100.00;96444.94;1035990;28;20049;-76
2020/12/17 00:53:12;;;;;;;283.15;43.35;;;;;;;0.85;100.00;96474.97;1035924;28;20501;-76
2020/12/17 00:53:43;;;;;;;360.90;50.58;;;;;;;0.87;100.00;96480.94;1028015;28;20034;-77
2020/12/17 00:54:13;;;;;;;358.00;50.70;;;;;;;0.83;100.00;96471.63;1027938;28;20029;-77
2020/12/17 00:54:44;;;;;;;255.18;40.42;;;;;;;0.87;100.00;96478.34;1024112;28;20030;-76
2020/12/17 00:55:15;;;;;;;326.40;47.70;;;;;;;0.92;100.00;96473.63;1027911;28;20503;-76
2020/12/17 00:55:46;;;;;;;106.82;29.40;;;;;;;0.81;100.00;96457.81;1031961;28;20081;-77
2020/12/17 00:56:16;;;;;;;197.98;37.35;;;;;;;0.92;100.00;96476.25;1023983;29;20141;-77
2020/12/17 00:56:47;;;;;;;211.32;40.47;;;;;;;0.80;100.00;96466.63;1028022;28;20023;-76
2020/12/17 00:57:18;;;;;;;214.73;39.05;;;;;;;0.86;100.00;96481.88;1027852;28;20031;-76
2020/12/17 00:57:49;;;;;;;254.50;42.30;;;;;;;0.77;100.00;96468.56;1028050;28;20399;-77
2020/12/17 00:58:20;;;;;;;261.85;42.78;;;;;;;0.66;100.00;96459.69;1031962;28;20054;-76
2020/12/17 00:58:50;;;;;;;154.63;33.42;;;;;;;0.86;100.00;96481.88;1016072;29;20028;-76
2020/12/17 00:59:21;;;;;;;463.58;60.28;;;;;;;0.81;100.00;96485.75;1027911;28;20118;-76
2020/12/17 00:59:53;;;;;;;208.65;38.95;;;;;;;0.72;100.00;96479.34;1027979;28;20034;-77
2020/12/17 01:00:23;;;;;;;180.82;34.17;;;;;;;0.59;100.00;96444.50;1032027;28;20022;-77
2020/12/17 01:00:54;;;;;;;356.55;50.53;;;;;;;0.77;100.00;96489.47;1035982;28;20494;-76
2020/12/17 01:01:25;;;;;;;206.93;37.28;;;;;;;0.49;100.00;96447.75;1027931;28;20546;-77
2020/12/17 01:01:55;;;;;;;460.02;58.35;;;;;;;0.64;100.00;96481.63;1027878;28;20027;-76
2020/12/17 01:02:26;;;;;;;447.77;55.33;;;;;;;0.75;100.00;96494.84;1027944;28;20511;-77
2020/12/17 01:02:57;;;;;;;385.92;52.40;;;;;;;0.82;100.00;96488.25;1032110;28;20521;-75
2020/12/17 01:03:28;;;;;;;451.23;55.88;;;;;;;0.69;100.00;96466.47;1032018;28;20037;-77
2020/12/17 01:03:58;;;;;;;425.98;57.55;;;;;;;0.83;100.00;96487.31;1032217;28;20022;-77
2020/12/17 01:04:29;;;;;;;329.13;50.03;;;;;;;0.85;100.00;96484.59;1028105;28;20023;-77
2020/12/17 01:05:00;;;;;;;256.42;43.05;;;;;;;0.84;100.00;96485.56;1031821;28;20117;-76
2020/12/17 01:05:31;;;;;;;413.00;58.42;;;;;;;0.81;100.00;96478.72;1027944;28;20118;-76
2020/12/17 01:06:02;;;;;;;416.85;58.70;;;;;;;0.72;100.00;96458.44;1031966;28;20133;-77
2020/12/17 01:06:32;;;;;;;292.23;48.22;;;;;;;0.87;100.00;96483.56;1036278;28;20454;-77
2020/12/17 01:07:04;;;;;;;324.13;49.45;;;;;;;0.88;100.00;96493.06;1027980;28;20100;-76
2020/12/17 01:07:35;;;;;;;234.10;42.75;;;;;;;0.96;100.00;96486.47;1032114;28;20022;-77
2020/12/17 01:08:06;;;;;;;303.83;50.22;;;;;;;0.89;100.00;96486.91;1020239;28;20031;-78
2020/12/17 01:08:36;;;;;;;211.63;41.53;;;;;;;0.96;100.00;96487.34;1028044;28;20019;-77
2020/12/17 01:09:08;;;;;;;209.10;42.83;;;;;;;0.82;100.00;96466.50;1023955;28;20035;-77
2020/12/17 01:09:40;;;;;;;165.93;38.10;;;;;;;0.88;100.00;96485.22;1028147;28;20023;-78
2020/12/17 01:10:11;;;;;;;84.70;28.67;;;;;;;0.94;100.00;96490.06;1027997;28;20455;-77
2020/12/17 01:10:41;;;;;;;202.13;38.72;;;;;;;0.87;100.00;96490.53;1028044;28;20027;-77
2020/12/17 01:11:12;;;;;;;95.32;28.52;;;;;;;0.87;100.00;96464.41;1036031;28;20026;-76
2020/12/17 01:11:43;;;;;;;163.75;35.50;;;;;;;0.83;100.00;96460.34;1027670;28;20050;-76
2020/12/17 01:12:14;;;;;;;81.60;28.05;;;;;;;1.00;100.00;96477.50;1031991;28;20026;-77
2020/12/17 01:12:45;;;;;;;103.20;30.05;;;;;;;0.79;100.00;96449.25;1023993;29;20015;-76
2020/12/17 01:13:16;;;;;;;159.52;36.90;;;;;;;0.81;100.00;96470.06;1027884;28;20030;-77
2020/12/17 01:13:47;;;;;;;102.93;29.52;;;;;;;0.92;100.00;96483.22;1036072;28;20443;-77
2020/12/17 01:14:17;;;;;;;136.18;34.45;;;;;;;0.96;100.00;96482.09;1036226;28;20112;-77
2020/12/17 01:14:48;;;;;;;141.13;37.15;;;;;;;0.94;100.00;96482.22;1031812;28;20054;-76
2020/12/17 01:15:19;;;;;;;128.90;33.42;;;;;;;0.83;100.00;96466.38;1036077;28;20117;-76
2020/12/17 01:15:50;;;;;;;114.88;32.38;;;;;;;0.86;100.00;96471.41;1024057;29;20035;-77
2020/12/17 01:16:21;;;;;;;99.45;29.90;;;;;;;0.93;100.00;96483.13;1031936;28;20494;-77
2020/12/17 01:16:52;;;;;;;117.78;32.55;;;;;;;0.89;100.00;96470.41;1031844;28;20093;-76
2020/12/17 01:17:23;;;;;;;148.40;33.40;;;;;;;0.94;100.00;96487.44;1020002;29;20353;-77
2020/12/17 01:17:54;;;;;;;131.75;33.03;;;;;;;0.78;100.00;96463.25;1036194;28;20053;-77
2020/12/17 01:18:25;;;;;;;125.45;30.85;;;;;;;0.78;100.00;96458.00;1027996;28;20031;-77
2020/12/17 01:18:55;;;;;;;124.18;31.90;;;;;;;0.96;100.00;96487.34;1031864;28;20033;-75
2020/12/17 01:19:26;;;;;;;109.30;30.80;;;;;;;1.00;100.00;96487.97;1032005;28;20045;-77
2020/12/17 01:19:57;;;;;;;84.28;26.83;;;;;;;1.02;100.00;96488.69;1020100;29;20079;-77
2020/12/17 01:20:28;;;;;;;157.23;36.00;;;;;;;0.89;100.00;96470.41;1031904;28;20031;-77
2020/12/17 01:20:58;;;;;;;171.35;35.10;;;;;;;0.87;100.00;96473.09;1027787;28;20027;-76
2020/12/17 01:21:29;;;;;;;161.35;34.15;;;;;;;0.85;100.00;96481.97;1027990;28;20030;-77
2020/12/17 01:22:01;;;;;;;127.82;31.67;;;;;;;0.80;100.00;96484.91;1023950;28;20051;-76
2020/12/17 01:22:31;;;;;;;137.60;30.48;;;;;;;0.77;100.00;96476.41;1040195;28;20136;-77
2020/12/17 01:23:02;;;;;;;149.18;33.78;;;;;;;0.69;100.00;96461.25;1023875;28;20572;-77
2020/12/17 01:23:33;;;;;;;181.95;36.80;;;;;;;0.72;100.00;96476.75;1036049;28;20030;-76
2020/12/17 01:24:03;;;;;;;199.25;37.83;;;;;;;0.64;100.00;96455.50;1027935;28;20069;-76
2020/12/17 01:24:34;;;;;;;263.17;44.00;;;;;;;0.86;100.00;96487.09;1028059;28;20111;-77
2020/12/17 01:25:05;;;;;;;195.18;38.95;;;;;;;0.88;100.00;96485.22;1031825;28;20109;-77
2020/12/17 01:25:35;;;;;;;304.48;47.15;;;;;;;0.90;100.00;96492.97;1020140;29;20050;-77
2020/12/17 01:26:10;;;;;;;313.17;50.13;;;;;;;0.72;100.00;96463.66;1027967;28;20022;-77
2020/12/17 01:26:40;;;;;;;170.30;35.83;;;;;;;0.72;100.00;96479.34;1019940;29;20038;-77
2020/12/17 01:27:11;;;;;;;87.10;27.20;;;;;;;0.80;100.00;96487.53;1031815;28;20022;-77
2020/12/17 01:27:42;;;;;;;177.88;38.05;;;;;;;0.77;100.00;96486.88;1024034;28;20399;-77
2020/12/17 01:28:13;;;;;;;75.18;25.67;;;;;;;0.71;100.00;96472.44;1032036;28;20046;-77
2020/12/17 01:28:43;;;;;;;135.27;31.33;;;;;;;0.77;100.00;96492.97;1031929;28;20018;-77
2020/12/17 01:29:15;;;;;;;101.30;27.88;;;;;;;0.79;100.00;96485.84;1023843;28;20055;-78
2020/12/17 01:29:45;;;;;;;125.05;31.40;;;;;;;0.76;100.00;96483.44;1023706;28;20042;-77
2020/12/17 01:30:16;;;;;;;129.77;31.95;;;;;;;0.74;100.00;96477.47;1023933;28;20027;-77
2020/12/17 01:30:47;;;;;;;143.43;34.03;;;;;;;0.37;100.00;96431.09;1023869;29;20028;-76
2020/12/17 01:31:18;;;;;;;96.05;27.67;;;;;;;0.77;100.00;96486.88;1027813;28;20015;-76
2020/12/17 01:31:48;;;;;;;128.60;34.13;;;;;;;0.75;100.00;96485.22;1032026;28;20503;-77
2020/12/17 01:32:19;;;;;;;71.18;24.73;;;;;;;0.60;100.00;96449.63;1027980;28;20138;-77
2020/12/17 01:32:52;;;;;;;125.03;31.15;;;;;;;0.79;100.00;96485.84;1031757;28;20015;-76
2020/12/17 01:33:23;;;;;;;81.35;27.20;;;;;;;0.53;100.00;96437.94;1023843;28;20023;-77
2020/12/17 01:33:54;;;;;;;89.90;26.60;;;;;;;0.78;100.00;96484.16;1031954;28;20022;-77
2020/12/17 01:34:25;;;;;;;120.38;30.33;;;;;;;0.78;100.00;96486.78;1023888;28;20054;-76
2020/12/17 01:34:55;;;;;;;79.53;24.38;;;;;;;0.75;100.00;96487.81;1019838;29;20115;-77
2020/12/17 01:35:26;;;;;;;95.72;26.92;;;;;;;0.80;100.00;96482.31;1027936;28;20030;-77
2020/12/17 01:36:00;;;;;;;134.23;32.40;;;;;;;0.83;100.00;96487.31;1023933;28;20039;-77
2020/12/17 01:36:31;;;;;;;105.95;27.42;;;;;;;0.79;100.00;96478.00;1027975;28;20066;-77
2020/12/17 01:37:02;;;;;;;120.00;30.30;;;;;;;0.84;100.00;96481.16;1023812;28;20027;-77
2020/12/17 01:37:33;;;;;;;208.25;40.60;;;;;;;0.79;100.00;96480.63;1027780;28;20479;-77
2020/12/17 01:38:04;;;;;;;150.45;32.67;;;;;;;0.76;100.00;96478.19;1023947;28;20038;-77
2020/12/17 01:38:35;;;;;;;142.70;33.03;;;;;;;0.72;100.00;96485.41;1031969;28;20105;-77
2020/12/17 01:39:06;;;;;;;169.45;35.65;;;;;;;0.70;100.00;96486.47;1027717;28;20038;-77
2020/12/17 01:39:36;;;;;;;111.88;30.77;;;;;;;0.44;100.00;96449.81;1027951;28;20065;-77
2020/12/17 01:40:07;;;;;;;108.00;30.70;;;;;;;0.68;100.00;96488.31;1016124;29;20024;-77
2020/12/17 01:40:38;;;;;;;109.22;30.50;;;;;;;0.69;100.00;96488.22;1027853;28;20018;-76
2020/12/17 01:41:12;;;;;;;178.27;36.65;;;;;;;0.52;100.00;96463.22;1019743;28;20028;-76
2020/12/17 01:41:43;;;;;;;116.20;31.98;;;;;;;0.52;100.00;96468.44;1024264;29;20552;-78
2020/12/17 01:42:13;;;;;;;106.65;29.10;;;;;;;0.62;100.00;96483.50;1024474;29;20031;-78
2020/12/17 01:42:44;;;;;;;147.95;33.35;;;;;;;0.42;100.00;96438.63;1024383;29;20053;-78
2020/12/17 01:43:14;;;;;;;119.47;31.65;;;;;;;0.67;100.00;96486.66;1028905;28;20057;-78
2020/12/17 01:43:46;;;;;;;136.65;33.28;;;;;;;0.64;100.00;96481.63;1028376;28;20030;-77
2020/12/17 01:44:17;;;;;;;122.43;31.60;;;;;;;0.59;100.00;96481.94;1031942;28;20085;-77
2020/12/17 01:44:47;;;;;;;149.40;34.42;;;;;;;0.61;100.00;96476.59;1039925;28;20021;-76
2020/12/17 01:45:18;;;;;;;62.05;24.33;;;;;;;0.68;100.00;96485.72;1027874;28;20419;-76
2020/12/17 01:45:49;;;;;;;128.73;33.22;;;;;;;0.58;100.00;96461.16;1036018;28;20021;-77
2020/12/17 01:46:20;;;;;;;142.57;32.28;;;;;;;0.67;100.00;96481.44;1031861;28;20022;-77
2020/12/17 01:46:52;;;;;;;77.63;26.63;;;;;;;0.55;100.00;96452.53;1027787;28;20027;-76
2020/12/17 01:47:26;;;;;;;93.18;27.88;;;;;;;0.63;100.00;96475.56;1035854;28;20026;-77
2020/12/17 01:47:57;;;;;;;148.20;33.75;;;;;;;0.61;100.00;96477.47;1031916;28;20081;-77
2020/12/17 01:48:28;;;;;;;136.38;31.83;;;;;;;0.43;100.00;96445.53;1027851;28;20086;-76
2020/12/17 01:49:00;;;;;;;51.17;23.67;;;;;;;0.55;100.00;96456.94;1023777;28;20027;-77
2020/12/17 01:49:31;;;;;;;134.25;32.55;;;;;;;0.58;100.00;96461.16;1019950;29;20419;-77
2020/12/17 01:50:04;;;;;;;106.78;29.55;;;;;;;0.69;100.00;96469.09;1027881;28;20023;-77
2020/12/17 01:50:35;;;;;;;135.15;31.98;;;;;;;0.58;100.00;96454.13;1031967;28;20106;-77
2020/12/17 01:51:06;;;;;;;108.75;30.73;;;;;;;0.73;100.00;96475.78;1027816;28;20508;-76
2020/12/17 01:51:36;;;;;;;119.03;33.20;;;;;;;0.57;100.00;96457.69;1035913;28;20101;-77
2020/12/17 01:52:07;;;;;;;138.55;33.58;;;;;;;0.71;100.00;96480.28;1031951;28;20033;-77
2020/12/17 01:52:38;;;;;;;96.68;29.95;;;;;;;0.77;100.00;96474.66;1023824;29;20143;-77
2020/12/17 01:53:09;;;;;;;184.40;40.15;;;;;;;0.67;100.00;96471.81;1027783;28;20057;-78
2020/12/17 01:53:40;;;;;;;139.93;33.05;;;;;;;0.78;100.00;96473.69;1044233;28;20017;-77
2020/12/17 01:54:11;;;;;;;148.68;33.75;;;;;;;0.67;100.00;96458.75;1020697;29;20027;-77
2020/12/17 01:54:53;;;;;;;218.10;41.72;;;;;;;0.81;100.00;96477.91;1032729;28;20018;-77
2020/12/17 01:55:26;;;;;;;186.90;39.92;;;;;;;0.59;100.00;96453.19;1024790;29;20023;-77
2020/12/17 01:56:00;;;;;;;152.30;33.10;;;;;;;0.75;100.00;96473.94;1036817;28;20026;-77
2020/12/17 01:56:32;;;;;;;132.65;31.75;;;;;;;0.77;100.00;96479.03;1020742;28;20137;-77
2020/12/17 01:57:04;;;;;;;155.10;34.80;;;;;;;0.74;100.00;96478.31;1028542;28;20019;-76
2020/12/17 01:57:35;;;;;;;176.43;36.42;;;;;;;0.56;100.00;96451.63;1028692;28;20392;-76
2020/12/17 01:58:06;;;;;;;125.68;31.45;;;;;;;0.69;100.00;96474.31;1028917;28;20053;-77
2020/12/17 01:58:45;;;;;;;108.20;28.60;;;;;;;0.75;100.00;96482.59;1032809;28;20026;-77
2020/12/17 01:59:22;;;;;;;170.10;35.58;;;;;;;0.60;100.00;96454.88;1020761;29;20024;-76
2020/12/17 01:59:53;;;;;;;198.52;36.08;;;;;;;0.76;100.00;96467.75;1028755;28;20117;-77
2020/12/17 02:00:24;;;;;;;145.23;34.63;;;;;;;0.73;100.00;96481.00;1024707;28;20028;-77
2020/12/17 02:00:55;;;;;;;137.77;33.47;;;;;;;0.66;100.00;96480.59;1032497;28;20427;-76
2020/12/17 02:01:28;;;;;;;150.52;35.10;;;;;;;0.62;100.00;96478.28;1032803;28;20033;-77
2020/12/17 02:01:59;;;;;;;241.27;41.42;;;;;;;0.66;100.00;96491.06;1020869;29;20024;-77
2020/12/17 02:02:30;;;;;;;253.10;42.08;;;;;;;0.74;100.00;96499.22;1028856;28;20031;-77
2020/12/17 02:03:02;;;;;;;238.02;42.28;;;;;;;0.64;100.00;96486.84;1032653;28;20495;-76
2020/12/17 02:03:33;;;;;;;235.38;43.83;;;;;;;0.71;100.00;96503.81;1028777;28;20031;-77
2020/12/17 02:04:03;;;;;;;261.52;44.55;;;;;;;0.71;100.00;96516.88;1032701;28;20481;-77
2020/12/17 02:04:34;;;;;;;245.30;41.63;;;;;;;0.68;100.00;96497.03;1028780;28;20044;-77
2020/12/17 02:05:06;;;;;;;326.65;48.88;;;;;;;0.72;100.00;96498.47;1024535;28;20455;-76
2020/12/17 02:05:37;;;;;;;266.55;44.08;;;;;;;0.68;100.00;96494.41;1024853;28;20037;-77
2020/12/17 02:06:08;;;;;;;107.93;31.20;;;;;;;0.87;100.00;96507.09;1028772;28;20426;-77
2020/12/17 02:06:39;;;;;;;203.00;40.25;;;;;;;0.74;100.00;96486.13;1020754;28;20139;-78
2020/12/17 02:07:10;;;;;;;127.75;31.60;;;;;;;0.96;100.00;96507.41;1024463;29;20522;-77
2020/12/17 02:07:42;;;;;;;89.47;28.70;;;;;;;0.96;100.00;96503.03;1020896;28;20126;-77
2020/12/17 02:08:13;;;;;;;216.77;39.90;;;;;;;0.89;100.00;96496.53;1028808;28;20023;-77
2020/12/17 02:08:44;;;;;;;163.65;36.28;;;;;;;0.80;100.00;96477.06;1024653;28;20023;-76
2020/12/17 02:09:16;;;;;;;151.88;33.00;;;;;;;0.92;100.00;96497.16;1024530;29;20030;-77
2020/12/17 02:09:47;;;;;;;110.18;29.73;;;;;;;0.90;100.00;96496.41;1024804;29;20117;-77
2020/12/17 02:10:19;;;;;;;168.38;34.95;;;;;;;0.82;100.00;96500.47;1028742;28;20033;-77
2020/12/17 02:10:49;;;;;;;129.00;31.80;;;;;;;0.66;100.00;96480.59;1028580;28;20033;-76
2020/12/17 02:11:20;;;;;;;205.15;38.97;;;;;;;0.79;100.00;96501.53;1024645;28;20023;-76
2020/12/17 02:11:58;;;;;;;241.57;42.10;;;;;;;0.78;100.00;96502.47;1028153;28;20523;-77
2020/12/17 02:12:46;;;;;;;313.95;47.90;;;;;;;0.71;100.00;96496.78;1036810;28;20017;-76
2020/12/17 02:13:31;;;;;;;139.25;33.15;;;;;;;0.69;100.00;96490.00;1032630;28;20026;-76
2020/12/17 02:14:02;;;;;;;104.60;28.92;;;;;;;0.79;100.00;96498.09;1032695;28;20033;-77
2020/12/17 02:14:33;;;;;;;126.88;33.20;;;;;;;0.76;100.00;96499.13;1028634;28;20503;-77
2020/12/17 02:15:04;;;;;;;87.75;27.73;;;;;;;0.83;100.00;96494.31;1016569;29;20176;-77
2020/12/17 02:15:34;;;;;;;165.40;36.60;;;;;;;0.53;100.00;96445.75;1032650;28;20023;-77
2020/12/17 02:16:05;;;;;;;96.93;29.40;;;;;;;0.69;100.00;96476.94;1024653;28;20027;-77
2020/12/17 02:16:36;;;;;;;123.70;32.35;;;;;;;0.74;100.00;96490.53;1024623;29;20031;-77
2020/12/17 02:17:07;;;;;;;188.50;38.30;;;;;;;0.74;100.00;96483.53;1024433;29;20023;-76
2020/12/17 02:17:37;;;;;;;83.18;29.63;;;;;;;0.89;100.00;96499.16;1028631;28;20019;-77
2020/12/17 02:18:08;;;;;;;138.32;34.85;;;;;;;0.93;100.00;96496.22;1032704;28;20019;-77
2020/12/17 02:18:39;;;;;;;143.95;35.25;;;;;;;0.89;100.00;96499.16;1032652;28;20458;-77
2020/12/17 02:19:09;;;;;;;90.50;28.40;;;;;;;0.79;100.00;96474.56;1028467;28;20033;-76
2020/12/17 02:19:40;;;;;;;239.65;44.42;;;;;;;0.97;100.00;96499.44;1028635;28;20027;-77
2020/12/17 02:20:11;;;;;;;209.60;41.33;;;;;;;0.96;100.00;96499.56;1024736;28;20182;-77
2020/12/17 02:20:41;;;;;;;209.20;41.50;;;;;;;0.78;100.00;96478.94;1024662;29;20050;-77
2020/12/17 02:21:13;;;;;;;124.82;33.75;;;;;;;0.94;100.00;96500.50;1024428;28;20484;-77
2020/12/17 02:21:44;;;;;;;90.63;28.75;;;;;;;0.93;100.00;96498.81;1032618;28;20026;-77
2020/12/17 02:22:15;;;;;;;180.95;36.97;;;;;;;0.87;100.00;96501.88;1024718;29;20030;-77